sensor_id;sensor_type;location;lat;lon;timestamp;temperature;humidity
44729;DHT22;30457;53.590;9.922;2022-09-01T00:04:04;19.20;44.30
44729;DHT22;30457;53.590;9.922;2022-09-01T00:08:30;19.20;44.40
44729;DHT22;30457;53.590;9.922;2022-09-01T00:12:56;19.20;44.50
44729;DHT22;30457;53.590;9.922;2022-09-01T00:17:21;19.10;44.30
44729;DHT22;30457;53.590;9.922;2022-09-01T00:21:47;19.00;44.60
44729;DHT22;30457;53.590;9.922;2022-09-01T00:26:13;19.00;44.70
44729;DHT22;30457;53.590;9.922;2022-09-01T00:30:39;19.00;44.90
44729;DHT22;30457;53.590;9.922;2022-09-01T00:35:05;18.90;44.80
44729;DHT22;30457;53.590;9.922;2022-09-01T00:39:33;18.90;44.80
44729;DHT22;30457;53.590;9.922;2022-09-01T00:44:01;18.80;45.10
44729;DHT22;30457;53.590;9.922;2022-09-01T00:48:29;18.80;45.00
44729;DHT22;30457;53.590;9.922;2022-09-01T00:52:56;18.70;44.90
44729;DHT22;30457;53.590;9.922;2022-09-01T00:57:22;18.70;45.00
44729;DHT22;30457;53.590;9.922;2022-09-01T01:01:49;18.60;45.10
44729;DHT22;30457;53.590;9.922;2022-09-01T01:06:15;18.60;45.30
44729;DHT22;30457;53.590;9.922;2022-09-01T01:10:41;18.50;45.40
44729;DHT22;30457;53.590;9.922;2022-09-01T01:15:08;18.50;45.50
44729;DHT22;30457;53.590;9.922;2022-09-01T01:19:50;18.40;45.60
44729;DHT22;30457;53.590;9.922;2022-09-01T01:24:36;18.40;46.10
44729;DHT22;30457;53.590;9.922;2022-09-01T01:29:02;18.30;45.80
44729;DHT22;30457;53.590;9.922;2022-09-01T01:33:31;18.20;45.80
44729;DHT22;30457;53.590;9.922;2022-09-01T01:37:59;18.20;45.80
44729;DHT22;30457;53.590;9.922;2022-09-01T01:42:26;18.20;45.90
44729;DHT22;30457;53.590;9.922;2022-09-01T01:46:54;18.10;46.10
44729;DHT22;30457;53.590;9.922;2022-09-01T01:51:22;18.10;46.20
44729;DHT22;30457;53.590;9.922;2022-09-01T01:55:52;18.00;46.10
44729;DHT22;30457;53.590;9.922;2022-09-01T02:00:20;18.00;46.20
44729;DHT22;30457;53.590;9.922;2022-09-01T02:04:46;17.90;46.30
44729;DHT22;30457;53.590;9.922;2022-09-01T02:09:14;17.90;46.20
44729;DHT22;30457;53.590;9.922;2022-09-01T02:13:40;17.80;46.50
44729;DHT22;30457;53.590;9.922;2022-09-01T02:18:06;17.80;46.60
44729;DHT22;30457;53.590;9.922;2022-09-01T02:22:32;17.70;46.60
44729;DHT22;30457;53.590;9.922;2022-09-01T02:26:57;17.70;46.80
44729;DHT22;30457;53.590;9.922;2022-09-01T02:31:26;17.70;46.80
44729;DHT22;30457;53.590;9.922;2022-09-01T02:35:58;17.60;46.70
44729;DHT22;30457;53.590;9.922;2022-09-01T02:40:24;17.60;47.10
44729;DHT22;30457;53.590;9.922;2022-09-01T02:44:49;17.50;46.90
44729;DHT22;30457;53.590;9.922;2022-09-01T02:49:18;17.50;47.10
44729;DHT22;30457;53.590;9.922;2022-09-01T02:53:47;17.50;47.30
44729;DHT22;30457;53.590;9.922;2022-09-01T02:58:15;17.40;47.00
44729;DHT22;30457;53.590;9.922;2022-09-01T03:02:44;17.40;47.30
44729;DHT22;30457;53.590;9.922;2022-09-01T03:07:09;17.30;47.10
44729;DHT22;30457;53.590;9.922;2022-09-01T03:11:40;17.30;47.30
44729;DHT22;30457;53.590;9.922;2022-09-01T03:16:07;17.30;47.40
44729;DHT22;30457;53.590;9.922;2022-09-01T03:20:35;17.20;47.20
44729;DHT22;30457;53.590;9.922;2022-09-01T03:25:02;17.20;47.60
44729;DHT22;30457;53.590;9.922;2022-09-01T03:29:29;17.10;47.70
44729;DHT22;30457;53.590;9.922;2022-09-01T03:33:55;17.10;47.80
44729;DHT22;30457;53.590;9.922;2022-09-01T03:38:27;17.10;48.00
44729;DHT22;30457;53.590;9.922;2022-09-01T03:42:53;17.00;47.90
44729;DHT22;30457;53.590;9.922;2022-09-01T03:47:19;17.00;48.40
44729;DHT22;30457;53.590;9.922;2022-09-01T03:51:46;17.00;48.40
44729;DHT22;30457;53.590;9.922;2022-09-01T03:56:12;17.00;48.20
44729;DHT22;30457;53.590;9.922;2022-09-01T04:00:43;16.90;48.20
44729;DHT22;30457;53.590;9.922;2022-09-01T04:05:08;16.90;48.30
44729;DHT22;30457;53.590;9.922;2022-09-01T04:09:34;16.90;48.20
44729;DHT22;30457;53.590;9.922;2022-09-01T04:14:00;16.80;48.30
44729;DHT22;30457;53.590;9.922;2022-09-01T04:18:27;16.80;48.30
44729;DHT22;30457;53.590;9.922;2022-09-01T04:22:54;16.70;48.30
44729;DHT22;30457;53.590;9.922;2022-09-01T04:27:22;16.70;48.30
44729;DHT22;30457;53.590;9.922;2022-09-01T04:31:52;16.60;48.40
44729;DHT22;30457;53.590;9.922;2022-09-01T04:40:50;16.60;48.70
44729;DHT22;30457;53.590;9.922;2022-09-01T04:45:16;16.60;48.60
44729;DHT22;30457;53.590;9.922;2022-09-01T04:49:47;16.50;48.60
44729;DHT22;30457;53.590;9.922;2022-09-01T04:54:14;16.50;48.60
44729;DHT22;30457;53.590;9.922;2022-09-01T04:58:42;16.50;49.00
44729;DHT22;30457;53.590;9.922;2022-09-01T05:03:08;16.50;48.90
44729;DHT22;30457;53.590;9.922;2022-09-01T05:07:52;16.50;49.20
44729;DHT22;30457;53.590;9.922;2022-09-01T05:12:20;16.50;49.20
44729;DHT22;30457;53.590;9.922;2022-09-01T05:16:48;16.50;49.40
44729;DHT22;30457;53.590;9.922;2022-09-01T05:21:16;16.50;49.60
44729;DHT22;30457;53.590;9.922;2022-09-01T05:25:43;16.50;50.10
44729;DHT22;30457;53.590;9.922;2022-09-01T05:30:09;16.50;50.30
44729;DHT22;30457;53.590;9.922;2022-09-01T05:34:35;16.60;50.40
44729;DHT22;30457;53.590;9.922;2022-09-01T05:39:04;16.70;50.90
44729;DHT22;30457;53.590;9.922;2022-09-01T05:43:30;16.80;51.10
44729;DHT22;30457;53.590;9.922;2022-09-01T05:47:56;16.90;51.50
44729;DHT22;30457;53.590;9.922;2022-09-01T05:52:24;17.10;51.80
44729;DHT22;30457;53.590;9.922;2022-09-01T05:56:51;17.20;52.10
44729;DHT22;30457;53.590;9.922;2022-09-01T06:01:26;17.40;52.20
44729;DHT22;30457;53.590;9.922;2022-09-01T06:05:54;17.60;52.30
44729;DHT22;30457;53.590;9.922;2022-09-01T06:10:20;17.80;52.60
44729;DHT22;30457;53.590;9.922;2022-09-01T06:14:47;18.00;52.60
44729;DHT22;30457;53.590;9.922;2022-09-01T06:19:14;18.20;52.20
44729;DHT22;30457;53.590;9.922;2022-09-01T06:23:44;18.40;52.10
44729;DHT22;30457;53.590;9.922;2022-09-01T06:28:10;18.70;52.00
44729;DHT22;30457;53.590;9.922;2022-09-01T06:32:37;18.90;52.00
44729;DHT22;30457;53.590;9.922;2022-09-01T06:37:03;19.10;51.80
44729;DHT22;30457;53.590;9.922;2022-09-01T06:41:28;19.30;51.60
44729;DHT22;30457;53.590;9.922;2022-09-01T06:45:58;19.50;51.50
44729;DHT22;30457;53.590;9.922;2022-09-01T06:50:26;19.80;51.40
44729;DHT22;30457;53.590;9.922;2022-09-01T06:54:52;20.00;50.90
44729;DHT22;30457;53.590;9.922;2022-09-01T06:59:19;20.20;50.70
44729;DHT22;30457;53.590;9.922;2022-09-01T07:03:49;20.40;50.40
44729;DHT22;30457;53.590;9.922;2022-09-01T07:08:21;20.60;50.10
44729;DHT22;30457;53.590;9.922;2022-09-01T07:13:01;20.90;49.60
44729;DHT22;30457;53.590;9.922;2022-09-01T07:17:28;21.10;49.30
44729;DHT22;30457;53.590;9.922;2022-09-01T07:21:55;21.30;48.70
44729;DHT22;30457;53.590;9.922;2022-09-01T07:26:21;21.50;48.50
44729;DHT22;30457;53.590;9.922;2022-09-01T07:30:50;21.80;48.20
44729;DHT22;30457;53.590;9.922;2022-09-01T07:35:20;22.00;46.90
44729;DHT22;30457;53.590;9.922;2022-09-01T07:39:48;22.20;46.50
44729;DHT22;30457;53.590;9.922;2022-09-01T07:44:36;22.40;45.80
44729;DHT22;30457;53.590;9.922;2022-09-01T07:49:21;22.60;45.50
44729;DHT22;30457;53.590;9.922;2022-09-01T07:53:49;22.80;45.40
44729;DHT22;30457;53.590;9.922;2022-09-01T07:58:16;22.90;45.10
44729;DHT22;30457;53.590;9.922;2022-09-01T08:02:44;23.10;44.70
44729;DHT22;30457;53.590;9.922;2022-09-01T08:07:13;23.30;44.70
44729;DHT22;30457;53.590;9.922;2022-09-01T08:11:40;23.50;44.00
44729;DHT22;30457;53.590;9.922;2022-09-01T08:16:07;23.70;43.50
44729;DHT22;30457;53.590;9.922;2022-09-01T08:20:37;23.90;43.00
44729;DHT22;30457;53.590;9.922;2022-09-01T08:25:09;24.00;42.70
44729;DHT22;30457;53.590;9.922;2022-09-01T08:29:35;24.20;42.50
44729;DHT22;30457;53.590;9.922;2022-09-01T08:34:01;24.50;42.20
44729;DHT22;30457;53.590;9.922;2022-09-01T08:38:29;24.70;41.60
44729;DHT22;30457;53.590;9.922;2022-09-01T08:47:42;25.10;38.40
44729;DHT22;30457;53.590;9.922;2022-09-01T08:57:04;25.50;36.70
44729;DHT22;30457;53.590;9.922;2022-09-01T09:06:39;25.80;36.50
44729;DHT22;30457;53.590;9.922;2022-09-01T09:16:01;26.20;35.30
44729;DHT22;30457;53.590;9.922;2022-09-01T09:20:29;26.40;35.20
44729;DHT22;30457;53.590;9.922;2022-09-01T09:25:09;26.70;35.60
44729;DHT22;30457;53.590;9.922;2022-09-01T09:29:35;26.90;34.00
44729;DHT22;30457;53.590;9.922;2022-09-01T09:34:00;27.10;33.80
44729;DHT22;30457;53.590;9.922;2022-09-01T09:38:26;27.20;33.00
44729;DHT22;30457;53.590;9.922;2022-09-01T09:43:01;27.30;33.40
44729;DHT22;30457;53.590;9.922;2022-09-01T09:47:39;27.50;33.30
44729;DHT22;30457;53.590;9.922;2022-09-01T09:56:33;27.80;33.00
44729;DHT22;30457;53.590;9.922;2022-09-01T10:01:42;28.10;33.50
44729;DHT22;30457;53.590;9.922;2022-09-01T10:05:50;28.30;32.50
44729;DHT22;30457;53.590;9.922;2022-09-01T10:10:36;28.50;32.50
44729;DHT22;30457;53.590;9.922;2022-09-01T10:15:06;28.50;31.10
44729;DHT22;30457;53.590;9.922;2022-09-01T10:19:32;28.50;30.80
44729;DHT22;30457;53.590;9.922;2022-09-01T10:24:08;28.40;30.40
44729;DHT22;30457;53.590;9.922;2022-09-01T10:29:28;28.20;30.70
44729;DHT22;30457;53.590;9.922;2022-09-01T10:33:27;28.20;30.00
44729;DHT22;30457;53.590;9.922;2022-09-01T10:37:53;28.10;30.00
44729;DHT22;30457;53.590;9.922;2022-09-01T10:42:19;28.10;29.90
44729;DHT22;30457;53.590;9.922;2022-09-01T10:46:45;28.10;30.00
44729;DHT22;30457;53.590;9.922;2022-09-01T10:55:43;28.20;29.90
44729;DHT22;30457;53.590;9.922;2022-09-01T11:09:25;28.30;29.40
44729;DHT22;30457;53.590;9.922;2022-09-01T11:13:54;28.50;29.60
44729;DHT22;30457;53.590;9.922;2022-09-01T11:18:26;28.60;30.00
44729;DHT22;30457;53.590;9.922;2022-09-01T11:32:12;28.90;29.30
44729;DHT22;30457;53.590;9.922;2022-09-01T11:41:22;28.90;29.00
44729;DHT22;30457;53.590;9.922;2022-09-01T11:46:20;28.90;28.30
44729;DHT22;30457;53.590;9.922;2022-09-01T11:50:59;28.90;28.70
44729;DHT22;30457;53.590;9.922;2022-09-01T11:55:34;28.90;28.20
44729;DHT22;30457;53.590;9.922;2022-09-01T12:00:12;28.90;28.30
44729;DHT22;30457;53.590;9.922;2022-09-01T12:04:38;28.90;28.50
44729;DHT22;30457;53.590;9.922;2022-09-01T12:09:05;28.90;28.70
44729;DHT22;30457;53.590;9.922;2022-09-01T12:13:30;28.90;28.80
44729;DHT22;30457;53.590;9.922;2022-09-01T12:18:18;28.90;28.20
44729;DHT22;30457;53.590;9.922;2022-09-01T12:22:46;28.80;28.10
44729;DHT22;30457;53.590;9.922;2022-09-01T12:27:13;28.60;29.00
44729;DHT22;30457;53.590;9.922;2022-09-01T12:31:40;28.40;28.40
44729;DHT22;30457;53.590;9.922;2022-09-01T12:40:53;28.10;28.80
44729;DHT22;30457;53.590;9.922;2022-09-01T12:45:43;28.00;28.70
44729;DHT22;30457;53.590;9.922;2022-09-01T12:54:38;27.80;30.00
44729;DHT22;30457;53.590;9.922;2022-09-01T12:59:14;27.90;29.60
44729;DHT22;30457;53.590;9.922;2022-09-01T13:04:05;27.90;29.00
44729;DHT22;30457;53.590;9.922;2022-09-01T13:08:33;27.90;29.20
44729;DHT22;30457;53.590;9.922;2022-09-01T13:12:58;27.80;29.20
44729;DHT22;30457;53.590;9.922;2022-09-01T13:17:24;27.70;29.10
44729;DHT22;30457;53.590;9.922;2022-09-01T13:21:50;27.60;29.30
44729;DHT22;30457;53.590;9.922;2022-09-01T13:26:16;27.60;29.30
44729;DHT22;30457;53.590;9.922;2022-09-01T13:30:43;27.70;29.40
44729;DHT22;30457;53.590;9.922;2022-09-01T13:35:13;27.80;29.30
44729;DHT22;30457;53.590;9.922;2022-09-01T13:39:39;27.80;29.00
44729;DHT22;30457;53.590;9.922;2022-09-01T13:44:05;27.80;28.90
44729;DHT22;30457;53.590;9.922;2022-09-01T13:48:31;27.80;29.20
44729;DHT22;30457;53.590;9.922;2022-09-01T13:52:59;27.80;29.00
44729;DHT22;30457;53.590;9.922;2022-09-01T13:57:25;27.70;29.20
44729;DHT22;30457;53.590;9.922;2022-09-01T14:01:51;27.60;29.30
44729;DHT22;30457;53.590;9.922;2022-09-01T14:06:17;27.60;29.40
44729;DHT22;30457;53.590;9.922;2022-09-01T14:10:45;27.60;29.70
44729;DHT22;30457;53.590;9.922;2022-09-01T14:15:15;27.60;29.80
44729;DHT22;30457;53.590;9.922;2022-09-01T14:19:41;27.60;29.90
44729;DHT22;30457;53.590;9.922;2022-09-01T14:24:07;27.70;30.00
44729;DHT22;30457;53.590;9.922;2022-09-01T14:28:32;28.00;30.10
44729;DHT22;30457;53.590;9.922;2022-09-01T14:33:01;28.20;29.60
44729;DHT22;30457;53.590;9.922;2022-09-01T14:37:27;28.50;29.80
44729;DHT22;30457;53.590;9.922;2022-09-01T14:41:54;28.80;29.40
44729;DHT22;30457;53.590;9.922;2022-09-01T14:46:21;29.00;29.30
44729;DHT22;30457;53.590;9.922;2022-09-01T14:50:48;29.30;30.10
44729;DHT22;30457;53.590;9.922;2022-09-01T14:55:14;29.50;28.90
44729;DHT22;30457;53.590;9.922;2022-09-01T14:59:41;29.60;28.00
44729;DHT22;30457;53.590;9.922;2022-09-01T15:04:07;29.60;27.80
44729;DHT22;30457;53.590;9.922;2022-09-01T15:08:32;29.40;28.00
44729;DHT22;30457;53.590;9.922;2022-09-01T15:12:59;29.20;28.00
44729;DHT22;30457;53.590;9.922;2022-09-01T15:17:26;29.00;28.20
44729;DHT22;30457;53.590;9.922;2022-09-01T15:21:52;28.80;28.40
44729;DHT22;30457;53.590;9.922;2022-09-01T15:26:17;28.70;28.40
44729;DHT22;30457;53.590;9.922;2022-09-01T15:30:43;28.80;29.10
44729;DHT22;30457;53.590;9.922;2022-09-01T15:35:10;28.80;28.60
44729;DHT22;30457;53.590;9.922;2022-09-01T15:39:36;28.90;29.10
44729;DHT22;30457;53.590;9.922;2022-09-01T15:44:04;29.10;28.80
44729;DHT22;30457;53.590;9.922;2022-09-01T15:48:31;29.10;28.20
44729;DHT22;30457;53.590;9.922;2022-09-01T15:53:02;29.00;28.00
44729;DHT22;30457;53.590;9.922;2022-09-01T15:57:30;28.70;27.90
44729;DHT22;30457;53.590;9.922;2022-09-01T16:01:55;28.50;28.30
44729;DHT22;30457;53.590;9.922;2022-09-01T16:06:22;28.20;28.50
44729;DHT22;30457;53.590;9.922;2022-09-01T16:10:48;28.10;29.00
44729;DHT22;30457;53.590;9.922;2022-09-01T16:15:16;28.00;29.20
44729;DHT22;30457;53.590;9.922;2022-09-01T16:19:58;28.00;29.30
44729;DHT22;30457;53.590;9.922;2022-09-01T16:24:26;28.20;28.90
44729;DHT22;30457;53.590;9.922;2022-09-01T16:28:55;28.20;29.00
44729;DHT22;30457;53.590;9.922;2022-09-01T16:33:21;28.20;29.10
44729;DHT22;30457;53.590;9.922;2022-09-01T16:38:04;28.10;29.00
44729;DHT22;30457;53.590;9.922;2022-09-01T16:52:01;27.70;29.00
44729;DHT22;30457;53.590;9.922;2022-09-01T16:56:33;27.50;29.10
44729;DHT22;30457;53.590;9.922;2022-09-01T17:01:25;27.30;29.10
44729;DHT22;30457;53.590;9.922;2022-09-01T17:06:00;27.10;29.40
44729;DHT22;30457;53.590;9.922;2022-09-01T17:10:38;27.00;29.30
44729;DHT22;30457;53.590;9.922;2022-09-01T17:19:36;26.70;29.70
44729;DHT22;30457;53.590;9.922;2022-09-01T17:29:14;26.50;29.90
44729;DHT22;30457;53.590;9.922;2022-09-01T17:34:03;26.40;30.00
44729;DHT22;30457;53.590;9.922;2022-09-01T17:39:09;26.20;30.00
44729;DHT22;30457;53.590;9.922;2022-09-01T17:43:33;26.10;30.20
44729;DHT22;30457;53.590;9.922;2022-09-01T17:48:37;26.00;30.00
44729;DHT22;30457;53.590;9.922;2022-09-01T17:53:15;25.90;30.20
44729;DHT22;30457;53.590;9.922;2022-09-01T17:57:55;25.70;30.50
44729;DHT22;30457;53.590;9.922;2022-09-01T18:07:32;25.50;30.40
44729;DHT22;30457;53.590;9.922;2022-09-01T18:12:07;25.40;30.60
44729;DHT22;30457;53.590;9.922;2022-09-01T18:16:42;25.30;30.70
44729;DHT22;30457;53.590;9.922;2022-09-01T18:21:18;25.20;30.80
44729;DHT22;30457;53.590;9.922;2022-09-01T18:25:58;25.10;31.00
44729;DHT22;30457;53.590;9.922;2022-09-01T18:30:52;25.00;31.40
44729;DHT22;30457;53.590;9.922;2022-09-01T18:35:40;24.90;31.60
44729;DHT22;30457;53.590;9.922;2022-09-01T18:44:56;24.60;32.00
44729;DHT22;30457;53.590;9.922;2022-09-01T19:22:28;23.70;33.30
44729;DHT22;30457;53.590;9.922;2022-09-01T19:27:00;23.60;33.80
44729;DHT22;30457;53.590;9.922;2022-09-01T19:31:48;23.50;33.80
44729;DHT22;30457;53.590;9.922;2022-09-01T19:36:46;23.40;34.00
44729;DHT22;30457;53.590;9.922;2022-09-01T19:41:15;23.30;34.20
44729;DHT22;30457;53.590;9.922;2022-09-01T19:50:55;23.10;34.80
44729;DHT22;30457;53.590;9.922;2022-09-01T19:55:29;23.00;35.50
44729;DHT22;30457;53.590;9.922;2022-09-01T20:09:52;22.60;35.30
44729;DHT22;30457;53.590;9.922;2022-09-01T20:19:15;22.50;35.70
44729;DHT22;30457;53.590;9.922;2022-09-01T20:24:02;22.30;36.10
44729;DHT22;30457;53.590;9.922;2022-09-01T20:33:29;22.10;36.60
44729;DHT22;30457;53.590;9.922;2022-09-01T20:38:02;22.00;36.90
44729;DHT22;30457;53.590;9.922;2022-09-01T20:43:03;22.00;36.90
44729;DHT22;30457;53.590;9.922;2022-09-01T20:47:32;21.90;38.50
44729;DHT22;30457;53.590;9.922;2022-09-01T20:56:45;21.70;38.30
44729;DHT22;30457;53.590;9.922;2022-09-01T21:05:57;21.60;38.20
44729;DHT22;30457;53.590;9.922;2022-09-01T21:10:44;21.40;38.10
44729;DHT22;30457;53.590;9.922;2022-09-01T21:19:55;21.30;38.80
44729;DHT22;30457;53.590;9.922;2022-09-01T21:24:23;21.20;39.40
44729;DHT22;30457;53.590;9.922;2022-09-01T21:28:53;21.10;39.20
44729;DHT22;30457;53.590;9.922;2022-09-01T21:33:29;21.00;39.50
44729;DHT22;30457;53.590;9.922;2022-09-01T21:37:55;21.00;40.00
44729;DHT22;30457;53.590;9.922;2022-09-01T21:42:24;20.90;39.70
44729;DHT22;30457;53.590;9.922;2022-09-01T21:46:50;20.80;40.10
44729;DHT22;30457;53.590;9.922;2022-09-01T21:51:16;20.80;40.10
44729;DHT22;30457;53.590;9.922;2022-09-01T21:55:42;20.70;40.20
44729;DHT22;30457;53.590;9.922;2022-09-01T22:00:20;20.60;40.30
44729;DHT22;30457;53.590;9.922;2022-09-01T22:04:46;20.60;41.00
44729;DHT22;30457;53.590;9.922;2022-09-01T22:09:13;20.50;41.40
44729;DHT22;30457;53.590;9.922;2022-09-01T22:13:40;20.40;41.00
44729;DHT22;30457;53.590;9.922;2022-09-01T22:18:06;20.40;41.20
44729;DHT22;30457;53.590;9.922;2022-09-01T22:22:32;20.30;41.50
44729;DHT22;30457;53.590;9.922;2022-09-01T22:26:58;20.30;41.40
44729;DHT22;30457;53.590;9.922;2022-09-01T22:31:25;20.30;41.90
44729;DHT22;30457;53.590;9.922;2022-09-01T22:35:52;20.20;41.90
44729;DHT22;30457;53.590;9.922;2022-09-01T22:40:18;20.10;41.90
44729;DHT22;30457;53.590;9.922;2022-09-01T22:44:44;20.10;41.90
44729;DHT22;30457;53.590;9.922;2022-09-01T22:49:10;20.10;42.20
44729;DHT22;30457;53.590;9.922;2022-09-01T22:53:37;20.00;42.20
44729;DHT22;30457;53.590;9.922;2022-09-01T22:58:04;20.00;42.20
44729;DHT22;30457;53.590;9.922;2022-09-01T23:02:29;19.90;42.30
44729;DHT22;30457;53.590;9.922;2022-09-01T23:06:55;19.90;42.40
44729;DHT22;30457;53.590;9.922;2022-09-01T23:11:21;19.80;42.50
44729;DHT22;30457;53.590;9.922;2022-09-01T23:15:47;19.80;42.50
44729;DHT22;30457;53.590;9.922;2022-09-01T23:20:13;19.70;42.70
44729;DHT22;30457;53.590;9.922;2022-09-01T23:24:38;19.70;42.70
44729;DHT22;30457;53.590;9.922;2022-09-01T23:29:04;19.60;42.70
44729;DHT22;30457;53.590;9.922;2022-09-01T23:33:30;19.60;42.80
44729;DHT22;30457;53.590;9.922;2022-09-01T23:37:56;19.50;43.00
44729;DHT22;30457;53.590;9.922;2022-09-01T23:42:22;19.50;43.20
44729;DHT22;30457;53.590;9.922;2022-09-01T23:46:48;19.50;43.40
44729;DHT22;30457;53.590;9.922;2022-09-01T23:51:14;19.40;43.60
44729;DHT22;30457;53.590;9.922;2022-09-01T23:55:44;19.40;43.60
